Time;durP1;ratioP1;P1;durP2;ratioP2;P2;SDS_P1;SDS_P2;PMS_P1;PMS_P2;Temp;Humidity;BMP_temperature;BMP_pressure;BME280_temperature;BME280_humidity;BME280_pressure;Samples;Min_cycle;Max_cycle;Signal;HPM_P1;HPM_P2
2020/12/04 00:01:32;;;;;;;25.63;13.77;;;;;;;1.17;99.76;95678.97;5070992;28;20201;-64
2020/12/04 00:03:59;;;;;;;28.57;15.00;;;;;;;1.26;99.76;95692.94;5070876;28;20660;-64
2020/12/04 00:06:26;;;;;;;32.20;15.97;;;;;;;1.27;99.43;95698.81;5071089;28;20197;-64
2020/12/04 00:08:53;;;;;;;26.80;14.57;;;;;;;1.24;100.00;95691.63;5070316;28;20220;-64
2020/12/04 00:11:20;;;;;;;27.43;15.60;;;;;;;1.21;100.00;95692.06;5070851;28;20258;-64
2020/12/04 00:13:47;;;;;;;31.73;15.87;;;;;;;1.16;100.00;95692.75;5070977;28;20648;-65
2020/12/04 00:16:14;;;;;;;28.53;14.67;;;;;;;1.26;100.00;95697.28;5070777;28;20249;-64
2020/12/04 00:18:41;;;;;;;27.47;15.07;;;;;;;1.29;99.68;95696.81;5070686;28;20626;-65
2020/12/04 00:21:08;;;;;;;26.53;15.10;;;;;;;1.29;99.68;95694.28;5070689;28;20227;-64
2020/12/04 00:23:35;;;;;;;24.13;13.03;;;;;;;1.32;100.00;95693.03;5070447;28;20685;-63
2020/12/04 00:26:02;;;;;;;21.97;13.20;;;;;;;1.41;99.80;95689.84;5070370;28;20645;-67
2020/12/04 00:28:29;;;;;;;24.87;13.87;;;;;;;1.38;100.00;95695.44;5070286;28;20795;-64
2020/12/04 00:30:56;;;;;;;21.23;12.30;;;;;;;1.40;99.34;95700.31;5070423;28;20261;-64
2020/12/04 00:33:23;;;;;;;23.07;13.17;;;;;;;1.31;99.98;95707.59;5070408;28;20196;-65
2020/12/04 00:35:49;;;;;;;21.33;11.47;;;;;;;1.36;100.00;95700.00;5070425;28;20203;-64
2020/12/04 00:38:17;;;;;;;22.20;12.47;;;;;;;1.36;100.00;95692.31;5070122;28;20292;-64
2020/12/04 00:40:44;;;;;;;22.23;12.67;;;;;;;1.42;100.00;95688.84;5070389;28;20234;-64
2020/12/04 00:43:11;;;;;;;22.50;13.43;;;;;;;1.37;100.00;95686.22;5070376;28;20198;-63
2020/12/04 00:45:38;;;;;;;21.10;12.10;;;;;;;1.37;100.00;95686.22;5070171;28;20199;-64
2020/12/04 00:48:04;;;;;;;23.10;12.53;;;;;;;1.34;100.00;95684.13;5070175;28;20228;-64
2020/12/04 00:50:31;;;;;;;26.10;15.70;;;;;;;1.46;100.00;95682.25;5069976;28;20232;-64
2020/12/04 00:52:58;;;;;;;23.10;13.20;;;;;;;1.49;100.00;95676.69;5070012;28;20199;-64
2020/12/04 00:55:26;;;;;;;26.10;13.73;;;;;;;1.51;100.00;95672.09;5069917;28;20203;-65
2020/12/04 00:57:53;;;;;;;22.67;13.70;;;;;;;1.49;100.00;95676.69;5070219;28;20219;-64
2020/12/04 01:00:20;;;;;;;27.67;13.90;;;;;;;1.57;100.00;95680.66;5069993;28;20195;-64
2020/12/04 01:02:46;;;;;;;26.03;13.30;;;;;;;1.59;100.00;95681.97;5069826;28;20203;-64
2020/12/04 01:05:13;;;;;;;22.87;12.97;;;;;;;1.63;100.00;95680.50;5070012;28;20224;-64
2020/12/04 01:07:40;;;;;;;29.57;13.60;;;;;;;1.69;100.00;95679.56;5070530;28;20710;-64
2020/12/04 01:10:07;;;;;;;26.30;13.53;;;;;;;1.71;100.00;95677.53;5070131;28;20265;-64
2020/12/04 01:12:35;;;;;;;24.70;14.20;;;;;;;1.63;100.00;95664.34;5070188;28;20279;-65
2020/12/04 01:15:02;;;;;;;29.07;15.10;;;;;;;1.60;100.00;95657.91;5069895;28;20276;-64
2020/12/04 01:17:30;;;;;;;22.60;12.87;;;;;;;1.69;100.00;95650.63;5069986;28;20206;-63
2020/12/04 01:19:56;;;;;;;20.03;11.57;;;;;;;1.72;100.00;95645.03;5071628;28;20199;-65
2020/12/04 01:22:23;;;;;;;25.53;13.43;;;;;;;1.73;100.00;95651.72;5074223;28;20192;-64
2020/12/04 01:24:50;;;;;;;23.40;13.20;;;;;;;1.68;100.00;95649.84;5074135;28;20249;-64
2020/12/04 01:27:17;;;;;;;26.60;14.60;;;;;;;1.78;100.00;95649.22;5073841;28;20221;-64
2020/12/04 01:29:45;;;;;;;26.70;14.03;;;;;;;1.79;100.00;95639.75;5073826;28;20238;-64
2020/12/04 01:32:12;;;;;;;24.37;13.77;;;;;;;1.72;100.00;95630.44;5073690;28;20236;-64
2020/12/04 01:34:39;;;;;;;24.23;12.90;;;;;;;1.66;100.00;95639.03;5073702;28;20192;-64
2020/12/04 01:37:05;;;;;;;19.77;10.60;;;;;;;1.67;100.00;95634.72;5074187;28;20219;-63
2020/12/04 01:39:32;;;;;;;20.53;11.40;;;;;;;1.64;100.00;95630.06;5073298;28;20650;-64
2020/12/04 01:42:01;;;;;;;17.07;9.63;;;;;;;1.73;100.00;95620.97;5073828;28;20261;-64
2020/12/04 01:44:27;;;;;;;16.93;10.20;;;;;;;1.67;100.00;95617.56;5073572;28;20201;-64
2020/12/04 01:46:55;;;;;;;17.30;9.83;;;;;;;1.66;100.00;95618.56;5073544;28;20663;-64
2020/12/04 01:49:22;;;;;;;18.20;10.10;;;;;;;1.79;100.00;95616.69;5073404;28;20315;-65
2020/12/04 01:51:51;;;;;;;20.33;11.60;;;;;;;1.87;100.00;95611.94;5073533;28;20643;-64
2020/12/04 01:54:19;;;;;;;21.77;11.77;;;;;;;1.89;100.00;95604.03;5073510;28;20203;-64
2020/12/04 01:56:48;;;;;;;20.73;10.93;;;;;;;1.85;100.00;95608.84;5073067;28;20548;-64
2020/12/04 01:59:14;;;;;;;17.20;10.67;;;;;;;1.87;100.00;95611.16;5073253;28;20189;-64
2020/12/04 02:01:43;;;;;;;17.03;10.10;;;;;;;1.89;100.00;95596.34;5073255;28;20205;-64
2020/12/04 02:04:13;;;;;;;18.33;10.33;;;;;;;1.86;100.00;95578.88;5073149;28;20194;-64
2020/12/04 02:06:47;;;;;;;16.93;10.30;;;;;;;1.88;100.00;95587.09;5073328;28;20588;-64
2020/12/04 02:09:21;;;;;;;18.93;11.07;;;;;;;1.86;100.00;95584.78;5073121;28;20234;-64
2020/12/04 02:11:49;;;;;;;17.63;10.03;;;;;;;1.87;100.00;95583.75;5073270;28;20210;-64
2020/12/04 02:14:17;;;;;;;17.67;9.50;;;;;;;1.88;100.00;95592.22;5073209;28;20205;-65
2020/12/04 02:16:45;;;;;;;19.37;9.67;;;;;;;1.82;100.00;95588.03;5073459;28;20247;-63
2020/12/04 02:19:13;;;;;;;17.10;9.33;;;;;;;1.93;100.00;95589.75;5073068;28;20287;-65
2020/12/04 02:21:43;;;;;;;15.67;9.23;;;;;;;1.96;100.00;95584.91;5073256;28;20295;-64
2020/12/04 02:24:12;;;;;;;15.30;9.07;;;;;;;1.98;100.00;95579.56;5072837;28;20557;-62
2020/12/04 02:26:44;;;;;;;19.00;9.80;;;;;;;1.90;100.00;95569.69;5072819;28;20254;-64
2020/12/04 02:29:11;;;;;;;14.27;8.27;;;;;;;1.95;100.00;95557.72;5072789;28;20220;-62
2020/12/04 02:31:38;;;;;;;15.50;8.80;;;;;;;1.91;100.00;95561.78;5072624;28;20198;-64
2020/12/04 02:34:05;;;;;;;14.53;8.30;;;;;;;1.82;100.00;95563.19;5072890;28;20202;-64
2020/12/04 02:36:31;;;;;;;15.60;8.47;;;;;;;1.91;100.00;95572.03;5072684;28;20201;-65
2020/12/04 02:38:59;;;;;;;15.93;8.17;;;;;;;1.90;100.00;95567.91;5072228;28;20228;-64
2020/12/04 02:41:26;;;;;;;15.73;8.67;;;;;;;1.96;99.65;95572.09;5072572;28;20197;-63
2020/12/04 02:43:53;;;;;;;15.20;9.07;;;;;;;1.88;99.84;95577.63;5072553;28;20192;-65
2020/12/04 02:46:20;;;;;;;12.73;8.10;;;;;;;1.92;99.62;95576.16;5072617;28;20188;-64
2020/12/04 02:48:46;;;;;;;14.17;7.67;;;;;;;1.94;100.00;95568.22;5072370;28;20228;-63
2020/12/04 02:51:13;;;;;;;21.40;13.00;;;;;;;1.96;100.00;95553.38;5072412;28;20232;-64
2020/12/04 02:53:40;;;;;;;14.70;9.80;;;;;;;1.89;100.00;95563.03;5072371;28;20252;-62
2020/12/04 02:56:08;;;;;;;17.27;9.90;;;;;;;1.94;100.00;95566.44;5072356;28;20515;-64
2020/12/04 02:58:35;;;;;;;17.83;10.80;;;;;;;1.90;100.00;95569.69;5072387;28;20201;-64
2020/12/04 03:01:01;;;;;;;19.93;10.90;;;;;;;1.97;100.00;95554.94;5072359;28;20198;-64
2020/12/04 03:03:28;;;;;;;17.37;9.73;;;;;;;1.97;100.00;95560.06;5072132;28;20199;-64
2020/12/04 03:05:55;;;;;;;15.87;9.57;;;;;;;2.00;100.00;95557.78;5072107;28;20193;-63
2020/12/04 03:08:25;;;;;;;20.43;11.37;;;;;;;1.98;100.00;95556.50;5071940;28;20246;-65
2020/12/04 03:10:52;;;;;;;23.93;12.50;;;;;;;2.01;100.00;95538.06;5072195;28;20215;-64
2020/12/04 03:13:19;;;;;;;23.40;12.70;;;;;;;1.95;100.00;95549.25;5072269;28;20196;-64
2020/12/04 03:15:46;;;;;;;20.50;11.20;;;;;;;1.98;100.00;95548.81;5071957;28;20226;-64
2020/12/04 03:18:13;;;;;;;22.63;11.53;;;;;;;1.94;100.00;95570.78;5071970;28;20647;-64
2020/12/04 03:20:40;;;;;;;19.80;11.13;;;;;;;1.98;100.00;95566.75;5071735;28;20685;-65
2020/12/04 03:23:07;;;;;;;21.90;11.97;;;;;;;1.96;100.00;95568.75;5071721;28;20200;-64
2020/12/04 03:25:33;;;;;;;24.63;13.40;;;;;;;1.98;100.00;95571.88;5071766;28;20210;-64
2020/12/04 03:28:00;;;;;;;18.63;11.80;;;;;;;1.97;100.00;95576.22;5071701;28;20296;-63
2020/12/04 03:30:28;;;;;;;24.63;11.43;;;;;;;2.05;100.00;95572.44;5071748;28;20207;-65
2020/12/04 03:32:56;;;;;;;23.97;12.93;;;;;;;2.04;100.00;95576.81;5071528;28;20200;-65
2020/12/04 03:35:23;;;;;;;20.03;11.77;;;;;;;2.03;100.00;95579.63;5071470;28;20205;-65
2020/12/04 03:37:50;;;;;;;23.33;12.80;;;;;;;2.09;100.00;95574.31;5071452;28;20192;-65
2020/12/04 03:40:16;;;;;;;20.90;12.73;;;;;;;2.09;100.00;95571.00;5071212;28;20611;-65
2020/12/04 03:42:43;;;;;;;22.03;12.63;;;;;;;2.17;100.00;95568.00;5070884;28;20551;-64
2020/12/04 03:45:10;;;;;;;22.37;12.57;;;;;;;2.13;100.00;95583.09;5071445;28;20201;-64
2020/12/04 03:47:39;;;;;;;28.07;13.50;;;;;;;2.24;100.00;95575.53;5071129;28;20242;-64
2020/12/04 03:50:06;;;;;;;23.40;12.03;;;;;;;2.25;100.00;95588.06;5071265;28;20630;-66
2020/12/04 03:52:33;;;;;;;20.53;12.13;;;;;;;2.23;100.00;95582.44;5071340;28;20204;-65
2020/12/04 03:54:59;;;;;;;21.97;11.67;;;;;;;2.16;100.00;95581.81;5071158;28;20197;-66
2020/12/04 03:57:26;;;;;;;24.10;13.27;;;;;;;2.11;100.00;95571.50;5071207;28;20745;-64
2020/12/04 03:59:53;;;;;;;21.47;13.33;;;;;;;2.19;100.00;95583.94;5070993;28;20574;-65
2020/12/04 04:02:20;;;;;;;20.20;12.50;;;;;;;2.25;100.00;95574.47;5070998;28;20229;-61
2020/12/04 04:04:48;;;;;;;23.90;14.17;;;;;;;2.25;100.00;95577.06;5071346;28;20661;-65
2020/12/04 04:07:15;;;;;;;28.40;14.93;;;;;;;2.24;100.00;95567.84;5070772;28;20741;-65
2020/12/04 04:09:42;;;;;;;27.97;15.37;;;;;;;2.30;100.00;95570.19;5071071;28;20242;-64
2020/12/04 04:12:09;;;;;;;33.27;16.90;;;;;;;2.20;100.00;95569.28;5070617;28;20237;-64
2020/12/04 04:14:36;;;;;;;32.77;15.47;;;;;;;2.22;100.00;95580.88;5070565;28;20235;-64
2020/12/04 04:17:03;;;;;;;35.13;17.67;;;;;;;2.18;100.00;95577.25;5070620;28;20195;-64
2020/12/04 04:19:30;;;;;;;28.93;16.20;;;;;;;2.17;100.00;95593.63;5070543;28;20200;-65
2020/12/04 04:21:57;;;;;;;28.43;14.60;;;;;;;2.17;100.00;95588.50;5070789;28;20202;-65
2020/12/04 04:24:24;;;;;;;25.30;14.57;;;;;;;2.23;100.00;95584.22;5070592;28;20598;-64
2020/12/04 04:26:51;;;;;;;26.93;14.53;;;;;;;2.23;100.00;95569.63;5070596;28;20196;-64
2020/12/04 04:29:18;;;;;;;27.33;14.43;;;;;;;2.14;100.00;95573.63;5070376;28;20232;-65
2020/12/04 04:31:45;;;;;;;29.80;15.33;;;;;;;2.08;100.00;95561.75;5070859;28;20201;-64
2020/12/04 04:34:12;;;;;;;29.80;14.63;;;;;;;2.04;100.00;95556.28;5070618;28;20671;-64
2020/12/04 04:36:39;;;;;;;31.27;15.47;;;;;;;2.01;100.00;95558.56;5070637;28;20197;-64
2020/12/04 04:39:06;;;;;;;24.40;14.00;;;;;;;2.10;100.00;95549.44;5070261;28;20232;-64
2020/12/04 04:41:33;;;;;;;27.17;13.70;;;;;;;2.14;100.00;95553.09;5070323;28;20198;-64
2020/12/04 04:44:00;;;;;;;25.70;11.93;;;;;;;2.19;100.00;95553.16;5070230;28;20195;-64
2020/12/04 04:46:35;;;;;;;29.20;14.00;;;;;;;2.08;100.00;95552.28;5070429;28;20196;-65
2020/12/04 04:49:09;;;;;;;24.53;13.90;;;;;;;2.01;100.00;95556.78;5070410;28;20232;-66
2020/12/04 04:51:40;;;;;;;27.43;14.20;;;;;;;2.08;100.00;95561.75;5070427;28;20191;-64
2020/12/04 04:54:10;;;;;;;27.17;14.87;;;;;;;2.18;100.00;95564.44;5070195;28;20283;-64
2020/12/04 04:56:37;;;;;;;29.57;16.57;;;;;;;2.09;100.00;95563.31;5070365;28;20197;-64
2020/12/04 04:59:08;;;;;;;24.63;14.23;;;;;;;2.11;100.00;95556.13;5070209;28;20200;-65
2020/12/04 05:01:35;;;;;;;27.37;13.83;;;;;;;2.25;100.00;95552.19;5070151;28;20208;-64
2020/12/04 05:04:01;;;;;;;25.83;14.40;;;;;;;2.12;100.00;95567.94;5070218;28;20239;-65
2020/12/04 05:06:32;;;;;;;28.47;16.27;;;;;;;2.14;100.00;95566.66;5070152;28;20193;-64
2020/12/04 05:08:59;;;;;;;25.60;14.63;;;;;;;2.17;100.00;95565.44;5070145;28;20222;-65
2020/12/04 05:11:27;;;;;;;30.23;16.20;;;;;;;2.07;100.00;95575.56;5070148;28;20200;-64
2020/12/04 05:14:13;;;;;;;34.53;20.40;;;;;;;2.08;100.00;95566.88;5070213;28;20261;-64
2020/12/04 05:16:40;;;;;;;32.83;19.40;;;;;;;2.10;100.00;95567.38;5069874;28;20226;-65
2020/12/04 05:19:07;;;;;;;27.47;16.03;;;;;;;2.09;100.00;95563.31;5069962;28;20258;-65
2020/12/04 05:21:36;;;;;;;57.47;29.07;;;;;;;2.10;100.00;95570.72;5070174;28;20209;-65
2020/12/04 05:24:03;;;;;;;44.47;23.93;;;;;;;2.09;100.00;95564.03;5069941;28;20204;-64
2020/12/04 05:26:33;;;;;;;76.07;34.47;;;;;;;2.08;100.00;95551.50;5069826;28;20193;-65
2020/12/04 05:29:00;;;;;;;88.90;39.90;;;;;;;2.12;100.00;95553.34;5069573;28;20228;-65
2020/12/04 05:31:32;;;;;;;38.93;23.83;;;;;;;2.04;100.00;95571.69;5069654;28;20248;-65
2020/12/04 05:33:59;;;;;;;71.47;33.60;;;;;;;2.08;100.00;95559.19;5069862;28;20197;-65
2020/12/04 05:36:27;;;;;;;67.83;29.20;;;;;;;2.11;100.00;95556.13;5069980;28;20194;-65
2020/12/04 05:38:56;;;;;;;31.83;19.37;;;;;;;2.17;100.00;95566.22;5069385;28;20224;-65
2020/12/04 05:41:23;;;;;;;51.57;23.90;;;;;;;2.19;100.00;95566.00;5070115;28;20198;-61
2020/12/04 05:43:53;;;;;;;43.47;22.53;;;;;;;2.19;100.00;95552.38;5069759;28;20215;-65
2020/12/04 05:46:23;;;;;;;82.70;41.53;;;;;;;2.16;100.00;95545.94;5069832;28;20702;-64
2020/12/04 05:48:58;;;;;;;37.07;22.10;;;;;;;2.18;100.00;95554.19;5070343;28;20227;-64
2020/12/04 05:51:27;;;;;;;34.77;18.63;;;;;;;2.14;100.00;95563.38;5070030;28;20206;-65
2020/12/04 05:53:54;;;;;;;38.87;20.63;;;;;;;2.11;100.00;95569.72;5069766;28;20199;-64
2020/12/04 05:56:22;;;;;;;32.30;17.37;;;;;;;2.04;100.00;95568.38;5069554;28;20581;-65
2020/12/04 05:58:53;;;;;;;35.50;17.20;;;;;;;2.07;100.00;95570.44;5069542;28;20678;-65
2020/12/04 06:01:22;;;;;;;35.37;17.30;;;;;;;2.08;100.00;95567.66;5069470;28;20276;-65
2020/12/04 06:03:53;;;;;;;34.73;18.13;;;;;;;2.23;100.00;95568.84;5069914;28;20248;-65
2020/12/04 06:06:25;;;;;;;35.67;20.37;;;;;;;2.32;100.00;95562.28;5071333;28;20197;-65
2020/12/04 06:08:58;;;;;;;32.43;18.23;;;;;;;2.28;100.00;95561.22;5073444;28;20239;-64
2020/12/04 06:11:30;;;;;;;33.80;19.70;;;;;;;2.29;100.00;95562.75;5072989;28;20260;-65
2020/12/04 06:13:59;;;;;;;46.97;24.17;;;;;;;2.33;100.00;95563.84;5073509;28;20195;-65
2020/12/04 06:16:27;;;;;;;42.53;23.13;;;;;;;2.37;100.00;95568.25;5072941;28;20195;-65
2020/12/04 06:18:54;;;;;;;35.80;17.90;;;;;;;2.32;100.00;95567.41;5072867;28;20199;-65
2020/12/04 06:21:44;;;;;;;35.60;19.40;;;;;;;2.30;100.00;95585.59;5072632;28;20668;-64
2020/12/04 06:24:11;;;;;;;45.60;23.03;;;;;;;2.36;100.00;95579.50;5072901;28;20284;-65
2020/12/04 06:26:56;;;;;;;37.67;20.17;;;;;;;2.44;100.00;95575.75;5072776;28;20233;-63
2020/12/04 06:29:23;;;;;;;116.83;58.50;;;;;;;2.53;100.00;95574.31;5072795;28;20316;-64
2020/12/04 06:31:51;;;;;;;72.33;34.87;;;;;;;2.53;100.00;95580.22;5072802;28;20207;-63
2020/12/04 06:34:19;;;;;;;159.30;62.87;;;;;;;2.46;100.00;95579.63;5073022;28;20206;-64
2020/12/04 06:36:50;;;;;;;105.03;46.63;;;;;;;2.57;100.00;95581.28;5072528;28;20197;-64
2020/12/04 06:39:30;;;;;;;101.73;41.30;;;;;;;2.72;100.00;95564.50;5072457;28;20233;-64
2020/12/04 06:41:58;;;;;;;68.83;31.30;;;;;;;2.66;100.00;95568.03;5072660;28;20199;-64
2020/12/04 06:44:26;;;;;;;74.87;40.00;;;;;;;2.58;100.00;95572.59;5072528;28;20192;-61
2020/12/04 06:46:55;;;;;;;92.37;48.00;;;;;;;2.65;100.00;95582.63;5072499;28;20239;-63
2020/12/04 06:49:35;;;;;;;73.20;38.47;;;;;;;2.68;100.00;95584.75;5072572;28;20237;-64
2020/12/04 06:52:08;;;;;;;90.57;44.27;;;;;;;2.62;100.00;95593.38;5072835;28;20214;-64
2020/12/04 06:54:36;;;;;;;80.90;41.93;;;;;;;2.65;100.00;95592.13;5072430;28;20671;-64
2020/12/04 06:57:03;;;;;;;83.97;39.83;;;;;;;2.69;100.00;95590.66;5072237;28;20197;-64
2020/12/04 06:59:32;;;;;;;70.43;32.13;;;;;;;2.74;100.00;95596.56;5072232;28;20514;-63
2020/12/04 07:02:06;;;;;;;115.40;46.43;;;;;;;2.68;100.00;95597.56;5072122;28;20667;-64
2020/12/04 07:04:35;;;;;;;140.60;51.07;;;;;;;2.70;100.00;95602.44;5072173;28;20204;-64
2020/12/04 07:07:03;;;;;;;268.53;92.43;;;;;;;2.69;100.00;95611.16;5072055;28;20571;-64
2020/12/04 07:09:30;;;;;;;96.73;38.97;;;;;;;2.72;100.00;95619.16;5072061;28;20257;-65
2020/12/04 07:11:58;;;;;;;111.90;40.23;;;;;;;2.74;100.00;95608.66;5072038;28;20194;-63
2020/12/04 07:14:25;;;;;;;182.70;70.13;;;;;;;2.80;100.00;95610.25;5072072;28;20204;-63
2020/12/04 07:16:53;;;;;;;91.97;35.90;;;;;;;2.86;100.00;95616.97;5071224;28;20199;-64
2020/12/04 07:19:22;;;;;;;133.60;46.00;;;;;;;2.79;100.00;95624.84;5071370;28;20697;-63
2020/12/04 07:21:49;;;;;;;207.13;67.10;;;;;;;2.80;100.00;95610.25;5071986;28;20204;-64
2020/12/04 07:24:16;;;;;;;68.97;33.77;;;;;;;2.87;100.00;95610.84;5071719;28;20200;-63
2020/12/04 07:26:51;;;;;;;162.37;59.53;;;;;;;2.85;100.00;95610.28;5071652;28;20312;-64
2020/12/04 07:29:18;;;;;;;94.53;36.40;;;;;;;2.88;100.00;95609.81;5071966;28;20256;-63
2020/12/04 07:31:47;;;;;;;40.83;21.23;;;;;;;2.97;100.00;95595.53;5071721;28;20275;-63
2020/12/04 07:34:19;;;;;;;48.67;25.10;;;;;;;2.98;100.00;95597.88;5071683;28;20288;-63
2020/12/04 07:36:51;;;;;;;48.17;23.43;;;;;;;3.09;100.00;95598.72;5071487;28;20284;-63
2020/12/04 07:39:28;;;;;;;127.10;47.37;;;;;;;3.13;100.00;95602.38;5071416;28;20245;-64
2020/12/04 07:41:56;;;;;;;46.67;24.80;;;;;;;3.12;100.00;95592.34;5071485;28;20203;-63
2020/12/04 07:44:34;;;;;;;81.57;40.93;;;;;;;3.25;100.00;95589.34;5071396;28;20201;-63
2020/12/04 07:47:11;;;;;;;73.50;39.50;;;;;;;3.19;100.00;95591.09;5071622;28;20196;-64
2020/12/04 07:49:46;;;;;;;66.70;34.70;;;;;;;3.21;100.00;95591.66;5071218;28;20646;-64
2020/12/04 07:52:20;;;;;;;68.63;39.57;;;;;;;3.28;100.00;95589.66;5071401;28;20199;-64
2020/12/04 07:54:49;;;;;;;50.10;27.60;;;;;;;3.36;99.58;95593.56;5071852;28;20539;-64
2020/12/04 07:57:24;;;;;;;58.00;33.07;;;;;;;3.30;100.00;95590.16;5071288;28;20693;-64
2020/12/04 07:59:53;;;;;;;82.90;36.47;;;;;;;3.32;99.26;95592.50;5071092;28;20222;-63
2020/12/04 08:02:23;;;;;;;48.67;25.53;;;;;;;3.41;99.27;95585.91;5071037;28;20229;-63
2020/12/04 08:04:51;;;;;;;50.17;28.73;;;;;;;3.44;99.52;95587.97;5071212;28;20282;-64
2020/12/04 08:07:19;;;;;;;58.90;32.53;;;;;;;3.33;100.00;95587.13;5070912;28;20283;-63
2020/12/04 08:09:47;;;;;;;61.03;32.17;;;;;;;3.36;100.00;95593.56;5070811;28;20321;-61
2020/12/04 08:12:17;;;;;;;60.10;27.87;;;;;;;3.31;100.00;95598.66;5070696;28;20200;-64
2020/12/04 08:14:49;;;;;;;58.07;28.70;;;;;;;3.39;100.00;95604.09;5070685;28;20276;-63
2020/12/04 08:17:19;;;;;;;59.07;30.33;;;;;;;3.37;99.73;95601.03;5071024;28;20200;-64
2020/12/04 08:19:46;;;;;;;83.30;40.03;;;;;;;3.41;99.72;95602.09;5071058;28;20671;-64
2020/12/04 08:22:15;;;;;;;74.27;34.93;;;;;;;3.48;99.22;95607.03;5070771;28;20226;-64
2020/12/04 08:25:01;;;;;;;75.93;33.43;;;;;;;3.45;99.82;95610.84;5070482;28;20629;-64
2020/12/04 08:27:29;;;;;;;63.97;29.87;;;;;;;3.54;99.90;95615.53;5070836;28;20216;-63
2020/12/04 08:30:08;;;;;;;53.87;25.30;;;;;;;3.58;99.32;95616.59;5070249;28;20320;-63
2020/12/04 08:32:35;;;;;;;54.20;28.83;;;;;;;3.57;99.45;95600.41;5070522;28;20204;-64
2020/12/04 08:35:14;;;;;;;55.90;30.40;;;;;;;3.60;99.27;95588.84;5070685;28;20204;-63
2020/12/04 08:37:40;;;;;;;45.53;25.00;;;;;;;3.64;98.54;95584.75;5070729;28;20663;-60
2020/12/04 08:40:22;;;;;;;58.30;28.17;;;;;;;3.63;98.99;95585.81;5070342;28;20313;-63
2020/12/04 08:42:49;;;;;;;51.67;25.37;;;;;;;3.63;99.35;95593.50;5070392;28;20194;-64
2020/12/04 08:45:16;;;;;;;48.07;26.17;;;;;;;3.53;99.53;95585.72;5070312;28;20287;-63
2020/12/04 08:47:44;;;;;;;42.67;22.53;;;;;;;3.37;100.00;95585.63;5070275;28;20307;-63
2020/12/04 08:50:17;;;;;;;53.70;26.60;;;;;;;3.54;99.73;95571.88;5070330;28;20231;-63
2020/12/04 08:52:51;;;;;;;44.03;23.13;;;;;;;3.62;99.03;95568.84;5070385;28;20211;-64
2020/12/04 08:55:21;;;;;;;44.60;23.37;;;;;;;3.60;100.00;95576.00;5070283;28;20202;-64
2020/12/04 08:57:49;;;;;;;41.87;24.27;;;;;;;3.64;99.08;95570.13;5070348;28;20751;-64
2020/12/04 09:00:17;;;;;;;44.03;26.00;;;;;;;3.67;99.50;95585.06;5069843;28;20650;-64
2020/12/04 09:02:45;;;;;;;36.37;21.53;;;;;;;3.62;99.49;95573.97;5070682;28;20236;-63
2020/12/04 09:05:14;;;;;;;59.03;30.57;;;;;;;3.61;99.89;95575.75;5070266;28;20199;-64
2020/12/04 09:07:41;;;;;;;78.20;36.17;;;;;;;3.69;99.69;95579.66;5070108;28;20672;-64
2020/12/04 09:10:10;;;;;;;84.37;38.90;;;;;;;3.68;99.42;95585.84;5069755;28;20222;-63
2020/12/04 09:12:38;;;;;;;68.93;37.77;;;;;;;3.77;99.16;95572.28;5069978;28;20302;-63
2020/12/04 09:15:07;;;;;;;37.93;22.50;;;;;;;3.78;98.86;95571.25;5070132;28;20573;-64
2020/12/04 09:17:34;;;;;;;68.77;33.70;;;;;;;3.74;98.22;95571.97;5069874;28;20698;-64
2020/12/04 09:20:02;;;;;;;45.63;24.60;;;;;;;3.80;99.02;95563.28;5070011;28;20205;-64
2020/12/04 09:22:28;;;;;;;42.17;24.60;;;;;;;3.84;98.35;95556.63;5069853;28;20224;-65
2020/12/04 09:24:55;;;;;;;46.10;24.80;;;;;;;3.91;98.72;95554.63;5069930;28;20202;-64
2020/12/04 09:27:22;;;;;;;43.70;25.77;;;;;;;3.85;97.78;95551.25;5069632;28;20275;-65
2020/12/04 09:29:50;;;;;;;48.30;28.80;;;;;;;3.85;98.88;95548.66;5070231;28;20812;-64
2020/12/04 09:32:18;;;;;;;49.80;26.77;;;;;;;3.77;99.33;95548.38;5069912;28;20198;-65
2020/12/04 09:34:46;;;;;;;36.20;21.07;;;;;;;3.74;98.81;95546.28;5070325;28;20662;-65
2020/12/04 09:37:19;;;;;;;36.87;21.40;;;;;;;3.66;99.27;95541.63;5069810;28;20207;-64
2020/12/04 09:39:48;;;;;;;37.90;21.57;;;;;;;3.58;100.00;95542.09;5069417;28;20314;-65
2020/12/04 09:42:16;;;;;;;38.70;21.63;;;;;;;3.57;100.00;95543.13;5072924;28;20196;-64
2020/12/04 09:44:44;;;;;;;36.83;21.10;;;;;;;3.60;100.00;95545.19;5073779;28;20243;-65
2020/12/04 09:47:12;;;;;;;41.87;23.13;;;;;;;3.62;100.00;95545.72;5073813;28;20287;-64
2020/12/04 09:49:39;;;;;;;37.00;22.10;;;;;;;3.68;100.00;95542.16;5073585;28;20314;-65
2020/12/04 09:52:07;;;;;;;42.93;26.63;;;;;;;3.74;100.00;95531.63;5073416;28;20761;-64
2020/12/04 09:54:36;;;;;;;43.87;27.37;;;;;;;3.77;100.00;95526.03;5073578;28;20264;-64
2020/12/04 09:57:05;;;;;;;39.13;22.53;;;;;;;3.82;100.00;95520.13;5073721;28;20203;-64
2020/12/04 09:59:32;;;;;;;49.93;25.80;;;;;;;3.84;100.00;95526.56;5073332;28;20206;-64
2020/12/04 10:02:00;;;;;;;44.30;24.27;;;;;;;3.86;100.00;95545.09;5073360;28;20277;-64
2020/12/04 10:04:28;;;;;;;36.43;20.33;;;;;;;3.83;100.00;95543.03;5073385;28;20572;-65
2020/12/04 10:06:56;;;;;;;38.20;21.80;;;;;;;3.89;100.00;95561.78;5073179;28;20198;-64
2020/12/04 10:09:27;;;;;;;33.03;20.03;;;;;;;3.81;100.00;95550.19;5073429;28;20735;-64
2020/12/04 10:11:54;;;;;;;33.90;19.27;;;;;;;3.76;100.00;95541.69;5073160;28;20259;-64
2020/12/04 10:14:21;;;;;;;35.30;19.23;;;;;;;3.84;100.00;95551.47;5073083;28;20230;-65
2020/12/04 10:16:49;;;;;;;35.90;19.50;;;;;;;4.00;100.00;95545.41;5073536;28;20208;-65
2020/12/04 10:19:18;;;;;;;38.20;21.13;;;;;;;3.94;100.00;95545.63;5073067;28;20195;-66
2020/12/04 10:21:46;;;;;;;42.07;22.70;;;;;;;3.84;100.00;95546.34;5072935;28;20734;-65
2020/12/04 10:24:15;;;;;;;41.67;21.87;;;;;;;3.87;100.00;95548.44;5073074;28;20571;-65
2020/12/04 10:26:43;;;;;;;48.70;25.27;;;;;;;4.02;100.00;95540.03;5073038;28;20306;-66
2020/12/04 10:29:10;;;;;;;43.87;24.57;;;;;;;4.07;99.92;95547.75;5072768;28;20235;-65
2020/12/04 10:31:37;;;;;;;37.83;22.37;;;;;;;4.06;100.00;95541.06;5072871;28;20274;-65
2020/12/04 10:34:05;;;;;;;39.03;21.60;;;;;;;4.13;100.00;95532.09;5072580;28;20706;-65
2020/12/04 10:36:32;;;;;;;47.10;25.33;;;;;;;4.16;100.00;95529.03;5072915;28;20199;-66
2020/12/04 10:39:00;;;;;;;49.93;27.37;;;;;;;4.16;99.96;95523.09;5072436;28;20736;-66
2020/12/04 10:41:31;;;;;;;48.97;26.13;;;;;;;4.11;99.73;95528.22;5072628;28;20196;-65
2020/12/04 10:43:59;;;;;;;43.80;24.87;;;;;;;4.17;99.89;95522.09;5072681;28;20199;-65
2020/12/04 10:46:26;;;;;;;46.80;27.50;;;;;;;4.18;99.81;95524.41;5072509;28;20611;-65
2020/12/04 10:48:54;;;;;;;60.23;30.63;;;;;;;4.26;99.78;95521.34;5072623;28;20217;-66
2020/12/04 10:51:21;;;;;;;41.60;23.67;;;;;;;4.38;98.85;95515.22;5072485;28;20597;-65
2020/12/04 10:53:48;;;;;;;49.40;26.43;;;;;;;4.36;98.88;95510.31;5072815;28;20196;-65
2020/12/04 10:56:20;;;;;;;52.47;28.23;;;;;;;4.33;99.63;95519.28;5072543;28;20208;-65
2020/12/04 10:58:46;;;;;;;58.27;30.77;;;;;;;4.34;99.30;95510.56;5072572;28;20287;-65
2020/12/04 11:01:16;;;;;;;52.60;28.23;;;;;;;4.26;98.98;95507.72;5072124;28;20200;-66
2020/12/04 11:06:26;;;;;;;53.23;27.83;;;;;;;4.29;98.78;95505.41;5072128;28;20693;-67
2020/12/04 11:08:52;;;;;;;59.10;29.37;;;;;;;4.20;99.32;95496.63;5072170;28;20199;-66
2020/12/04 11:11:26;;;;;;;44.40;25.60;;;;;;;4.24;99.04;95492.53;5072061;28;20279;-65
2020/12/04 11:13:54;;;;;;;43.53;23.50;;;;;;;4.25;99.16;95494.06;5072551;28;20197;-66
2020/12/04 11:16:20;;;;;;;47.57;24.53;;;;;;;4.23;99.03;95483.25;5072003;28;20285;-66
2020/12/04 11:18:47;;;;;;;51.03;25.27;;;;;;;4.19;99.81;95479.66;5072144;28;20201;-65
2020/12/04 11:21:14;;;;;;;46.20;24.30;;;;;;;4.21;99.96;95476.84;5072062;28;20563;-66
2020/12/04 11:23:41;;;;;;;43.83;23.87;;;;;;;4.09;100.00;95474.47;5072030;28;20199;-65
2020/12/04 11:26:08;;;;;;;42.00;23.33;;;;;;;4.22;100.00;95476.59;5071842;28;20231;-66
2020/12/04 11:28:36;;;;;;;43.40;24.13;;;;;;;4.22;100.00;95473.25;5071794;28;20303;-66